Time;durP1;ratioP1;P1;durP2;ratioP2;P2;SDS_P1;SDS_P2;PMS_P1;PMS_P2;Temp;Humidity;BMP_temperature;BMP_pressure;BME280_temperature;BME280_humidity;BME280_pressure;Samples;Min_cycle;Max_cycle;Signal;HPM_P1;HPM_P2
2022/05/08 00:00:25;;;;;;;13.30;6.75;;;;;;;12.47;100.00;98910.72;5132482;28;20051;-60
2022/05/08 00:02:54;;;;;;;13.82;7.15;;;;;;;12.52;100.00;98909.53;5132733;28;20111;-60
2022/05/08 00:05:20;;;;;;;17.30;7.18;;;;;;;12.55;100.00;98900.53;5132563;28;20100;-60
2022/05/08 00:07:46;;;;;;;15.90;7.88;;;;;;;12.54;100.00;98898.97;5132595;28;20047;-60
2022/05/08 00:10:13;;;;;;;22.80;7.47;;;;;;;12.53;100.00;98910.34;5131877;27;20047;-60
2022/05/08 00:12:39;;;;;;;18.45;8.07;;;;;;;12.55;100.00;98932.75;5132254;28;20067;-60
2022/05/08 00:15:06;;;;;;;14.73;7.80;;;;;;;12.58;100.00;98962.22;5132494;28;20491;-60
2022/05/08 00:17:34;;;;;;;13.40;7.20;;;;;;;12.57;100.00;98985.41;5132277;28;20054;-60
2022/05/08 00:20:02;;;;;;;13.80;6.40;;;;;;;12.54;100.00;99013.66;5132309;28;20051;-60
2022/05/08 00:22:28;;;;;;;23.08;9.05;;;;;;;12.56;100.00;99027.81;5132109;28;20043;-60
2022/05/08 00:24:55;;;;;;;14.93;7.78;;;;;;;12.57;100.00;99032.16;5132148;28;20047;-60
2022/05/08 00:27:21;;;;;;;14.25;7.20;;;;;;;12.54;100.00;99043.91;5132244;28;20138;-60
2022/05/08 00:29:47;;;;;;;17.80;7.28;;;;;;;12.47;100.00;99064.69;5132421;28;20058;-61
2022/05/08 00:32:13;;;;;;;24.27;10.15;;;;;;;12.45;100.00;99060.72;5131940;28;20047;-60
2022/05/08 00:34:40;;;;;;;13.93;7.18;;;;;;;12.42;100.00;99076.00;5131985;28;20051;-60
2022/05/08 00:37:06;;;;;;;11.73;7.60;;;;;;;12.35;100.00;99094.41;5132260;28;20456;-60
2022/05/08 00:39:33;;;;;;;15.32;7.60;;;;;;;12.28;100.00;99136.34;5131770;28;20058;-60
2022/05/08 00:41:59;;;;;;;11.65;7.55;;;;;;;12.23;100.00;99183.44;5132191;28;20066;-60
2022/05/08 00:44:25;;;;;;;11.63;6.82;;;;;;;12.21;100.00;99205.78;5132017;28;20055;-60
2022/05/08 00:46:52;;;;;;;15.13;7.40;;;;;;;12.19;100.00;99232.06;5132076;28;20092;-60
2022/05/08 00:49:18;;;;;;;15.70;7.80;;;;;;;12.20;100.00;99245.44;5131812;28;20058;-60
2022/05/08 00:51:48;;;;;;;11.95;7.03;;;;;;;12.16;100.00;99282.28;5131725;28;20047;-60
2022/05/08 00:54:16;;;;;;;13.05;7.53;;;;;;;12.15;100.00;99302.69;5131655;28;20092;-60
2022/05/08 00:56:43;;;;;;;16.95;7.78;;;;;;;12.15;100.00;99308.97;5131989;28;20112;-60
2022/05/08 00:59:10;;;;;;;14.82;7.25;;;;;;;12.23;100.00;99283.19;5131602;28;20054;-60
2022/05/08 01:01:36;;;;;;;13.80;7.47;;;;;;;12.28;100.00;99260.06;5131674;28;20096;-61
2022/05/08 01:04:03;;;;;;;14.32;8.57;;;;;;;12.36;100.00;99260.94;5131803;28;20559;-60
2022/05/08 01:06:31;;;;;;;12.68;7.78;;;;;;;12.42;100.00;99237.44;5131455;28;20430;-60
2022/05/08 01:08:58;;;;;;;14.07;7.53;;;;;;;12.51;100.00;99193.94;5131731;28;20078;-60
2022/05/08 01:11:25;;;;;;;13.50;7.43;;;;;;;12.63;100.00;99140.66;5131440;28;20055;-60
2022/05/08 01:13:51;;;;;;;18.00;7.00;;;;;;;12.75;100.00;99101.81;5131404;28;20054;-60
2022/05/08 01:16:20;;;;;;;18.20;7.93;;;;;;;12.81;100.00;99107.78;5131439;28;20081;-60
2022/05/08 01:18:49;;;;;;;13.50;6.95;;;;;;;12.88;100.00;99146.34;5131082;28;20047;-60
2022/05/08 01:21:17;;;;;;;12.95;5.80;;;;;;;12.87;100.00;99153.03;5131421;28;20471;-60
2022/05/08 01:23:46;;;;;;;15.43;7.07;;;;;;;12.84;100.00;99173.84;5131458;28;20047;-60
2022/05/08 01:26:12;;;;;;;23.15;7.57;;;;;;;12.84;100.00;99244.56;5131189;28;20055;-60
2022/05/08 01:28:38;;;;;;;14.98;7.05;;;;;;;12.75;100.00;99338.41;5131135;28;20047;-60
2022/05/08 01:31:05;;;;;;;14.55;6.97;;;;;;;12.68;100.00;99387.84;5131263;28;20054;-60
2022/05/08 01:33:31;;;;;;;21.70;7.63;;;;;;;12.61;100.00;99431.75;5131071;28;20051;-60
2022/05/08 01:35:57;;;;;;;16.05;7.22;;;;;;;12.60;100.00;99450.22;5131218;28;20051;-60
2022/05/08 01:38:24;;;;;;;12.43;7.18;;;;;;;12.60;100.00;99457.66;5130868;28;20047;-60
2022/05/08 01:40:51;;;;;;;19.27;8.38;;;;;;;12.59;100.00;99489.84;5131174;28;20050;-60
2022/05/08 01:43:17;;;;;;;16.75;6.57;;;;;;;12.53;100.00;99516.13;5131016;28;20055;-60
2022/05/08 01:45:43;;;;;;;12.32;5.97;;;;;;;12.48;100.00;99538.41;5130934;28;20051;-60
2022/05/08 01:48:22;;;;;;;13.48;6.88;;;;;;;12.44;100.00;99543.84;5130966;28;20539;-60
2022/05/08 01:50:50;;;;;;;11.48;5.85;;;;;;;12.45;100.00;99547.41;5130755;28;20043;-60
2022/05/08 01:53:17;;;;;;;8.90;5.80;;;;;;;12.44;100.00;99534.81;5131119;28;20055;-60
2022/05/08 01:55:43;;;;;;;9.80;5.55;;;;;;;12.44;100.00;99535.59;5130870;28;20078;-60
2022/05/08 01:58:10;;;;;;;10.88;6.07;;;;;;;12.47;100.00;99561.59;5130972;28;20055;-60
2022/05/08 02:00:36;;;;;;;10.27;6.43;;;;;;;12.45;100.00;99566.66;5130843;28;20055;-60
2022/05/08 02:03:04;;;;;;;11.82;5.95;;;;;;;12.43;100.00;99571.72;5130824;28;20088;-60
2022/05/08 02:05:31;;;;;;;8.80;5.13;;;;;;;12.46;100.00;99582.78;5130481;28;20054;-60
2022/05/08 02:08:01;;;;;;;10.00;5.75;;;;;;;12.53;100.00;99576.63;5130867;28;20414;-60
2022/05/08 02:10:27;;;;;;;9.30;5.72;;;;;;;12.57;100.00;99591.22;5130942;28;20055;-60
2022/05/08 02:12:53;;;;;;;8.70;5.80;;;;;;;12.61;100.00;99594.03;5130716;28;20054;-60
2022/05/08 02:15:21;;;;;;;7.82;4.88;;;;;;;12.67;100.00;99598.06;5130975;28;20051;-60
2022/05/08 02:17:47;;;;;;;9.27;5.93;;;;;;;12.72;100.00;99605.97;5130508;28;20047;-61
2022/05/08 02:20:13;;;;;;;8.25;5.30;;;;;;;12.74;100.00;99603.66;5130416;28;20062;-60
2022/05/08 02:22:39;;;;;;;10.77;5.80;;;;;;;12.74;100.00;99603.66;5130371;28;20047;-60
2022/05/08 02:25:07;;;;;;;10.07;5.88;;;;;;;12.75;100.00;99620.97;5130667;28;20044;-60
2022/05/08 02:27:37;;;;;;;9.77;5.30;;;;;;;12.76;100.00;99628.03;5130482;28;20109;-60
2022/05/08 02:30:06;;;;;;;10.18;6.05;;;;;;;12.72;100.00;99658.25;5130775;28;20058;-60
2022/05/08 02:32:33;;;;;;;6.97;5.40;;;;;;;12.75;100.00;99678.75;5130332;28;20051;-60
2022/05/08 02:34:59;;;;;;;11.20;5.82;;;;;;;12.75;100.00;99696.03;5133024;27;20043;-60
2022/05/08 02:37:26;;;;;;;9.48;5.00;;;;;;;12.76;100.00;99716.88;5134304;28;20428;-60
2022/05/08 02:39:53;;;;;;;13.40;8.70;;;;;;;12.73;100.00;99736.88;5133940;28;20214;-60
2022/05/08 02:42:19;;;;;;;9.45;6.05;;;;;;;12.67;100.00;99782.34;5134091;28;20111;-60
2022/05/08 02:44:45;;;;;;;10.75;5.53;;;;;;;12.67;100.00;99807.13;5134098;28;20043;-60
2022/05/08 02:47:12;;;;;;;7.72;5.50;;;;;;;12.61;100.00;99825.06;5133803;28;20051;-60
2022/05/08 02:49:38;;;;;;;10.57;5.55;;;;;;;12.60;100.00;99842.75;5133987;28;20059;-60
2022/05/08 02:52:06;;;;;;;10.70;6.40;;;;;;;12.57;100.00;99857.22;5133745;28;20043;-60
2022/05/08 02:54:32;;;;;;;9.20;6.03;;;;;;;12.49;100.00;99859.00;5134006;28;20058;-60
2022/05/08 02:59:43;;;;;;;9.45;6.28;;;;;;;12.44;100.00;99867.53;5133950;28;20060;-60
2022/05/08 03:02:09;;;;;;;9.55;5.90;;;;;;;12.45;100.00;99867.16;5133848;28;20051;-60
2022/05/08 03:04:36;;;;;;;11.52;6.28;;;;;;;12.49;100.00;99870.00;5133633;28;20509;-60
2022/05/08 03:07:03;;;;;;;9.57;6.32;;;;;;;12.50;100.00;99873.56;5133606;28;20504;-60
2022/05/08 03:09:29;;;;;;;19.35;7.78;;;;;;;12.49;100.00;99872.75;5133387;28;20406;-60
2022/05/08 03:11:55;;;;;;;15.90;5.22;;;;;;;12.51;100.00;99872.41;5133428;28;20043;-60
2022/05/08 03:14:23;;;;;;;15.73;7.00;;;;;;;12.47;100.00;99873.13;5133322;28;20460;-60
2022/05/08 03:16:50;;;;;;;13.38;6.30;;;;;;;12.48;100.00;99877.44;5133217;28;20051;-60
2022/05/08 03:19:18;;;;;;;8.05;5.55;;;;;;;12.47;100.00;99875.06;5133238;28;20047;-61
2022/05/08 03:21:48;;;;;;;15.20;6.05;;;;;;;12.48;100.00;99866.44;5133305;28;20058;-60
2022/05/08 03:24:15;;;;;;;10.82;5.65;;;;;;;12.51;100.00;99864.94;5133402;28;20047;-60
2022/05/08 03:26:41;;;;;;;12.82;5.72;;;;;;;12.56;100.00;99872.91;5133187;28;20054;-60
2022/05/08 03:29:07;;;;;;;10.10;6.30;;;;;;;12.61;100.00;99871.81;5133064;28;20559;-60
2022/05/08 03:31:34;;;;;;;11.77;5.72;;;;;;;12.71;100.00;99874.78;5133068;28;20051;-60
2022/05/08 03:34:00;;;;;;;17.20;5.97;;;;;;;12.75;100.00;99887.81;5133187;28;20047;-60
2022/05/08 03:36:26;;;;;;;14.68;6.32;;;;;;;12.80;100.00;99882.84;5133122;28;20051;-60
2022/05/08 03:38:52;;;;;;;10.77;5.88;;;;;;;12.87;100.00;99882.19;5132740;28;20092;-60
2022/05/08 03:41:19;;;;;;;7.15;5.25;;;;;;;12.93;100.00;99886.25;5132758;28;20043;-60
2022/05/08 03:43:46;;;;;;;11.02;6.15;;;;;;;12.90;100.00;99898.78;5132860;28;20562;-60
2022/05/08 03:46:13;;;;;;;14.82;6.00;;;;;;;12.88;100.00;99901.06;5131471;27;20083;-60
2022/05/08 03:48:40;;;;;;;14.32;6.97;;;;;;;12.87;100.00;99890.44;5132922;28;20055;-60
2022/05/08 03:51:06;;;;;;;17.48;5.40;;;;;;;12.84;100.00;99889.22;5133002;28;20051;-60
2022/05/08 03:53:32;;;;;;;29.50;9.38;;;;;;;12.79;100.00;99881.22;5132754;28;20088;-60
2022/05/08 03:55:58;;;;;;;10.05;6.20;;;;;;;12.65;100.00;99856.19;5132794;28;20051;-60
2022/05/08 03:58:26;;;;;;;15.68;6.38;;;;;;;12.50;100.00;99827.59;5132468;28;20054;-59
2022/05/08 04:00:52;;;;;;;17.30;6.85;;;;;;;12.45;100.00;99797.63;5132890;28;20493;-60
2022/05/08 04:03:18;;;;;;;13.02;7.30;;;;;;;12.40;100.00;99789.69;5132565;28;20057;-60
2022/05/08 04:05:44;;;;;;;9.63;6.65;;;;;;;12.40;100.00;99770.44;5132655;28;20421;-60
2022/05/08 04:08:10;;;;;;;10.38;7.13;;;;;;;12.43;100.00;99748.50;5132404;28;20529;-60
2022/05/08 04:10:37;;;;;;;17.90;7.65;;;;;;;12.48;100.00;99728.16;5132435;28;20523;-60
2022/05/08 04:13:03;;;;;;;9.52;6.20;;;;;;;12.55;100.00;99713.75;5132496;28;20055;-60
2022/05/08 04:18:14;;;;;;;14.43;6.45;;;;;;;12.55;100.00;99702.75;5132656;28;20131;-60
2022/05/08 04:20:40;;;;;;;16.80;7.15;;;;;;;12.51;100.00;99699.94;5132498;28;20051;-60
2022/05/08 04:25:52;;;;;;;9.20;6.65;;;;;;;12.46;100.00;99703.78;5132324;28;20054;-60
2022/05/08 04:28:19;;;;;;;13.23;7.38;;;;;;;12.47;100.00;99705.38;5132603;28;20054;-60
2022/05/08 04:30:47;;;;;;;8.85;5.97;;;;;;;12.45;100.00;99724.16;5132196;28;20521;-60
2022/05/08 04:33:13;;;;;;;13.95;7.32;;;;;;;12.51;100.00;99724.69;5132088;28;20433;-60
2022/05/08 04:35:39;;;;;;;12.20;6.20;;;;;;;12.56;100.00;99738.16;5132020;28;20114;-60
2022/05/08 04:38:05;;;;;;;10.07;6.75;;;;;;;12.63;100.00;99735.53;5132051;28;20051;-60
2022/05/08 04:40:31;;;;;;;15.10;6.35;;;;;;;12.74;100.00;99715.66;5131829;28;20051;-60
2022/05/08 04:42:57;;;;;;;9.35;5.95;;;;;;;12.88;100.00;99724.97;5132016;28;20074;-60
2022/05/08 04:45:24;;;;;;;14.18;6.88;;;;;;;13.03;100.00;99731.53;5132146;28;20047;-60
2022/05/08 04:47:51;;;;;;;7.53;5.10;;;;;;;13.11;100.00;99759.94;5131821;28;20047;-60
2022/05/08 04:50:17;;;;;;;17.00;6.57;;;;;;;13.12;100.00;99781.59;5132364;28;20055;-60
2022/05/08 04:52:43;;;;;;;10.15;4.80;;;;;;;13.16;100.00;99801.75;5131869;28;20047;-60
2022/05/08 04:55:10;;;;;;;11.27;5.47;;;;;;;13.17;100.00;99819.84;5131679;28;20494;-60
2022/05/08 04:57:36;;;;;;;10.98;6.72;;;;;;;13.19;100.00;99831.31;5131146;27;20062;-60
2022/05/08 05:00:04;;;;;;;8.88;5.80;;;;;;;13.25;100.00;99836.53;5131623;28;20051;-60
2022/05/08 05:02:31;;;;;;;14.73;6.55;;;;;;;13.30;100.00;99834.25;5131490;28;20051;-60
2022/05/08 05:04:58;;;;;;;12.55;5.25;;;;;;;13.36;100.00;99832.81;5131664;28;20055;-60
2022/05/08 05:07:24;;;;;;;10.85;6.18;;;;;;;13.36;100.00;99843.00;5131506;28;20051;-60
2022/05/08 05:09:50;;;;;;;8.95;5.53;;;;;;;13.34;100.00;99851.63;5131652;28;20066;-60
2022/05/08 05:12:17;;;;;;;8.85;4.97;;;;;;;13.42;100.00;99858.84;5131529;28;20047;-60
2022/05/08 05:14:43;;;;;;;6.57;4.88;;;;;;;13.52;100.00;99862.16;5131454;28;20426;-60
2022/05/08 05:17:09;;;;;;;12.50;5.80;;;;;;;13.55;100.00;99867.72;5131529;28;20047;-60
2022/05/08 05:19:35;;;;;;;6.93;4.70;;;;;;;13.50;100.00;99887.34;5131292;28;20494;-60
2022/05/08 05:22:03;;;;;;;11.98;4.63;;;;;;;13.48;100.00;99895.16;5131460;28;20057;-60
2022/05/08 05:24:30;;;;;;;8.13;5.07;;;;;;;13.44;100.00;99913.59;5131268;28;20422;-60
2022/05/08 05:26:56;;;;;;;7.95;4.90;;;;;;;13.48;100.00;99913.66;5131432;28;20242;-60
2022/05/08 05:29:22;;;;;;;7.70;5.25;;;;;;;13.48;100.00;99914.44;5131034;28;20050;-60
2022/05/08 05:31:48;;;;;;;5.53;4.28;;;;;;;13.49;100.00;99907.75;5131170;28;20058;-60
2022/05/08 05:34:15;;;;;;;10.30;5.63;;;;;;;13.46;100.00;99902.97;5131190;28;20051;-60
2022/05/08 05:36:42;;;;;;;10.57;5.63;;;;;;;13.46;100.00;99900.22;5131144;28;20072;-60
2022/05/08 05:39:08;;;;;;;13.55;5.78;;;;;;;13.46;100.00;99891.97;5130992;28;20501;-60
2022/05/08 05:41:35;;;;;;;15.73;6.32;;;;;;;13.48;100.00;99862.09;5130966;28;20524;-60
2022/05/08 05:44:01;;;;;;;10.20;6.00;;;;;;;13.43;100.00;99851.41;5131244;28;20047;-60
2022/05/08 05:49:11;;;;;;;;;;;;;;;13.41;100.00;99815.16;5131801;28;20091;-60
2022/05/08 05:51:37;;;;;;;13.90;6.60;;;;;;;13.39;100.00;99803.72;5130811;28;19923;-60
2022/05/08 05:54:04;;;;;;;9.57;5.38;;;;;;;13.30;100.00;99811.44;5130909;28;20476;-60
2022/05/08 05:56:31;;;;;;;7.72;5.10;;;;;;;13.28;100.00;99811.78;5130701;28;20047;-60
2022/05/08 05:58:57;;;;;;;9.65;5.65;;;;;;;13.34;100.00;99806.78;5130893;28;20058;-60
2022/05/08 06:01:23;;;;;;;8.10;5.45;;;;;;;13.51;100.00;99799.97;5130625;28;20058;-60
2022/05/08 06:03:49;;;;;;;7.45;5.13;;;;;;;13.76;100.00;99792.09;5130736;28;20055;-60
2022/05/08 06:06:15;;;;;;;9.15;4.65;;;;;;;13.97;100.00;99808.97;5130774;28;20062;-60
2022/05/08 06:08:41;;;;;;;8.07;4.30;;;;;;;14.18;100.00;99849.03;5129656;27;20551;-60
2022/05/08 06:11:08;;;;;;;11.68;5.95;;;;;;;14.51;100.00;99893.25;5130777;28;20440;-60
2022/05/08 06:13:34;;;;;;;5.93;4.35;;;;;;;14.82;100.00;99932.69;5130465;28;20054;-60
2022/05/08 06:16:01;;;;;;;6.80;4.43;;;;;;;15.28;100.00;99960.06;5130735;28;20070;-60
2022/05/08 06:18:27;;;;;;;6.53;4.93;;;;;;;15.50;100.00;99994.28;5130350;28;20100;-60
2022/05/08 06:20:54;;;;;;;8.70;4.53;;;;;;;15.52;100.00;99989.16;5130626;28;20058;-60
2022/05/08 06:23:21;;;;;;;6.88;4.20;;;;;;;15.52;100.00;99956.00;5130223;28;20047;-60
2022/05/08 06:25:47;;;;;;;7.18;4.40;;;;;;;15.39;100.00;99933.34;5130275;28;20043;-60
2022/05/08 06:28:18;;;;;;;8.50;6.30;;;;;;;15.57;100.00;99952.09;5130374;28;20051;-60
2022/05/08 06:30:45;;;;;;;11.85;4.88;;;;;;;15.80;100.00;99952.75;5130287;28;20058;-60
2022/05/08 06:33:11;;;;;;;7.72;4.15;;;;;;;15.90;100.00;99962.31;5130676;28;20457;-60
2022/05/08 06:35:38;;;;;;;10.18;4.32;;;;;;;15.91;100.00;99942.56;5130394;28;20047;-60
2022/05/08 06:38:05;;;;;;;6.45;5.80;;;;;;;15.92;100.00;99910.19;5130502;28;20051;-60
2022/05/08 06:40:31;;;;;;;5.75;4.72;;;;;;;15.96;100.00;99898.00;5130040;28;20524;-60
2022/05/08 06:42:57;;;;;;;6.78;6.07;;;;;;;16.14;100.00;99844.75;5130463;28;20047;-61
2022/05/08 06:45:24;;;;;;;10.43;4.55;;;;;;;16.36;100.00;99791.13;5130075;28;20115;-60
2022/05/08 06:47:51;;;;;;;7.00;4.45;;;;;;;16.57;100.00;99731.50;5130588;28;20080;-60
2022/05/08 06:50:18;;;;;;;8.13;5.22;;;;;;;16.73;100.00;99689.59;5129880;28;20066;-60
2022/05/08 06:52:44;;;;;;;11.27;4.70;;;;;;;16.87;100.00;99609.38;5130227;28;20078;-60
2022/05/08 06:55:11;;;;;;;9.25;6.32;;;;;;;16.91;100.00;99480.00;5129900;28;20047;-60
2022/05/08 06:57:37;;;;;;;8.52;3.78;;;;;;;16.91;100.00;99466.16;5129941;28;20052;-60
2022/05/08 07:02:48;;;;;;;6.30;4.20;;;;;;;16.87;100.00;99394.16;5129962;28;20568;-60
2022/05/08 07:05:15;;;;;;;6.10;5.47;;;;;;;16.87;100.00;99340.75;5130067;28;20053;-60
2022/05/08 07:07:41;;;;;;;8.05;5.15;;;;;;;17.13;100.00;99354.06;5129872;28;20057;-60
2022/05/08 07:10:08;;;;;;;5.78;5.15;;;;;;;17.62;100.00;99268.19;5129992;28;20434;-60
2022/05/08 07:12:36;;;;;;;9.95;5.35;;;;;;;18.14;100.00;99222.94;5129805;28;20116;-61
2022/05/08 07:15:03;;;;;;;6.28;4.90;;;;;;;18.69;100.00;98980.22;5129795;28;20048;-60
2022/05/08 07:17:29;;;;;;;6.25;4.93;;;;;;;18.81;100.00;98760.25;5129666;28;20047;-61
2022/05/08 07:19:56;;;;;;;6.35;4.50;;;;;;;18.58;100.00;98741.69;5130525;27;20043;-60
2022/05/08 07:22:23;;;;;;;8.07;4.82;;;;;;;18.29;100.00;98722.06;5132973;28;20051;-60
2022/05/08 07:24:49;;;;;;;8.10;3.92;;;;;;;18.24;100.00;98742.78;5133158;28;20542;-60
2022/05/08 07:27:15;;;;;;;6.20;4.30;;;;;;;18.45;100.00;98826.81;5133077;28;20502;-61
2022/05/08 07:29:42;;;;;;;5.80;4.68;;;;;;;18.73;100.00;98756.88;5133082;28;20062;-60
2022/05/08 07:32:09;;;;;;;7.70;5.15;;;;;;;18.89;100.00;98778.31;5133257;28;20062;-60
2022/05/08 07:37:19;;;;;;;;;;;;;;;18.54;100.00;98779.84;5133759;28;20548;-61
2022/05/08 07:39:46;;;;;;;6.68;5.07;;;;;;;18.53;100.00;98745.75;5132751;28;19949;-61
2022/05/08 07:42:12;;;;;;;9.70;5.03;;;;;;;18.43;100.00;98673.81;5132831;28;20058;-60
2022/05/08 07:44:38;;;;;;;6.97;4.80;;;;;;;18.03;100.00;98652.47;5132852;28;20070;-61
2022/05/08 07:47:05;;;;;;;5.88;4.82;;;;;;;18.01;100.00;98692.91;5132768;28;20059;-61
2022/05/08 07:49:31;;;;;;;7.35;4.60;;;;;;;18.08;100.00;98687.22;5132704;28;20054;-60
2022/05/08 07:51:57;;;;;;;12.55;4.50;;;;;;;18.73;100.00;98679.13;5132792;28;20051;-60
2022/05/08 07:54:23;;;;;;;5.18;4.43;;;;;;;19.09;100.00;98583.03;5132939;28;20074;-60
2022/05/08 07:56:50;;;;;;;4.70;4.22;;;;;;;19.25;100.00;98555.22;5132633;28;20054;-60
2022/05/08 07:59:16;;;;;;;4.88;3.95;;;;;;;19.03;100.00;98524.44;5132890;28;20078;-60
2022/05/08 08:01:42;;;;;;;4.63;4.20;;;;;;;18.67;100.00;98536.44;5132469;28;20058;-60
2022/05/08 08:04:10;;;;;;;5.32;4.60;;;;;;;18.23;100.00;98571.97;5132869;28;20417;-61
2022/05/08 08:06:36;;;;;;;6.55;4.68;;;;;;;17.94;100.00;98641.16;5132479;28;20112;-60
2022/05/08 08:09:04;;;;;;;5.03;4.60;;;;;;;17.61;100.00;98721.34;5132609;28;20055;-60
2022/05/08 08:11:31;;;;;;;7.32;4.78;;;;;;;17.27;100.00;98757.53;5132789;28;20418;-60
2022/05/08 08:13:58;;;;;;;5.25;4.53;;;;;;;16.82;100.00;98843.63;5132426;28;20055;-60
2022/05/08 08:16:24;;;;;;;5.38;4.60;;;;;;;16.59;100.00;98954.16;5132206;28;20047;-61
2022/05/08 08:18:54;;;;;;;9.18;3.90;;;;;;;16.53;100.00;99044.34;5132083;28;20051;-60
2022/05/08 08:21:21;;;;;;;5.70;4.18;;;;;;;16.56;100.00;99148.69;5132013;28;20164;-60
2022/05/08 08:23:47;;;;;;;6.45;3.97;;;;;;;16.50;100.00;99178.03;5132135;28;20051;-61
2022/05/08 08:26:13;;;;;;;8.82;4.65;;;;;;;16.44;100.00;99163.81;5132491;28;20051;-60
2022/05/08 08:28:40;;;;;;;4.93;3.38;;;;;;;16.40;100.00;99221.94;5132133;28;20047;-61
2022/05/08 08:31:07;;;;;;;9.25;3.70;;;;;;;16.41;100.00;99314.81;5131954;27;20054;-61
2022/05/08 08:33:36;;;;;;;4.32;3.90;;;;;;;16.29;100.00;99340.13;5131709;28;20047;-60
2022/05/08 08:36:03;;;;;;;3.50;2.90;;;;;;;16.30;100.00;99239.38;5132009;28;20055;-61
2022/05/08 08:38:29;;;;;;;3.08;2.67;;;;;;;16.54;100.00;99234.13;5131996;28;20425;-60
2022/05/08 08:40:57;;;;;;;5.80;3.90;;;;;;;16.70;100.00;99204.00;5131706;28;20051;-60
2022/05/08 08:43:26;;;;;;;4.82;4.32;;;;;;;16.91;100.00;99190.00;5131808;28;20047;-60
2022/05/08 08:48:42;;;;;;;8.50;5.10;;;;;;;16.97;100.00;99117.59;5131966;28;20480;-61
2022/05/08 08:51:08;;;;;;;8.63;3.88;;;;;;;16.97;100.00;98996.53;5131706;28;20047;-60
2022/05/08 08:53:34;;;;;;;3.75;3.28;;;;;;;17.50;100.00;98950.78;5131798;28;20047;-61
2022/05/08 08:56:01;;;;;;;4.88;3.80;;;;;;;18.41;100.00;98790.03;5131464;28;20047;-61
2022/05/08 08:58:27;;;;;;;10.13;4.35;;;;;;;18.91;100.00;98672.38;5132208;28;20524;-61
2022/05/08 09:00:53;;;;;;;5.65;3.92;;;;;;;19.78;100.00;98575.22;5131421;28;20047;-61
2022/05/08 09:03:25;;;;;;;8.48;3.35;;;;;;;20.12;100.00;98520.94;5131712;28;20132;-61
2022/05/08 09:05:54;;;;;;;5.43;4.68;;;;;;;20.25;100.00;98509.81;5131675;28;20051;-61
2022/05/08 09:08:28;;;;;;;4.00;3.70;;;;;;;20.74;100.00;98512.22;5131541;28;20051;-61
2022/05/08 09:10:56;;;;;;;6.47;3.05;;;;;;;21.46;100.00;98510.50;5131688;28;20055;-61
2022/05/08 09:13:23;;;;;;;4.00;3.70;;;;;;;21.77;100.00;98546.84;5131521;28;20047;-61
2022/05/08 09:15:49;;;;;;;3.95;3.58;;;;;;;22.17;100.00;98572.03;5131431;28;20043;-61
2022/05/08 09:18:16;;;;;;;5.05;4.10;;;;;;;21.77;100.00;98592.25;5131314;28;20461;-61
2022/05/08 09:20:44;;;;;;;4.88;4.07;;;;;;;21.91;100.00;98582.56;5131735;28;20414;-61
2022/05/08 09:23:13;;;;;;;4.63;3.85;;;;;;;21.67;100.00;98567.53;5131251;28;20399;-61
2022/05/08 09:25:47;;;;;;;3.67;3.35;;;;;;;21.73;100.00;98588.03;5131489;28;20043;-61
2022/05/08 09:28:14;;;;;;;4.22;3.78;;;;;;;22.02;100.00;98557.81;5131303;28;20054;-61
2022/05/08 09:31:05;;;;;;;6.25;3.60;;;;;;;22.29;100.00;98585.13;5131239;28;20055;-61
2022/05/08 09:33:33;;;;;;;6.68;3.50;;;;;;;22.72;100.00;98628.09;5131285;28;20509;-61
2022/05/08 09:36:01;;;;;;;5.72;3.00;;;;;;;22.81;100.00;98640.56;5131157;28;20055;-61
2022/05/08 09:38:45;;;;;;;3.42;2.92;;;;;;;22.33;100.00;98693.91;5131418;28;20058;-61
2022/05/08 09:41:13;;;;;;;3.80;3.17;;;;;;;22.36;100.00;98645.50;5130992;28;20050;-61
2022/05/08 09:43:40;;;;;;;6.68;3.47;;;;;;;22.59;100.00;98651.81;5130966;27;20054;-61
2022/05/08 09:46:08;;;;;;;9.38;4.60;;;;;;;22.61;100.00;98672.47;5130972;28;20051;-61
2022/05/08 09:48:34;;;;;;;2.80;2.60;;;;;;;22.61;100.00;98700.41;5131099;28;20134;-61
2022/05/08 09:51:03;;;;;;;3.17;2.88;;;;;;;22.62;100.00;98737.50;5130959;28;20058;-61
2022/05/08 09:53:31;;;;;;;4.45;2.90;;;;;;;22.00;100.00;98738.16;5131125;28;20083;-61
2022/05/08 09:55:59;;;;;;;4.20;2.80;;;;;;;22.06;100.00;98709.19;5131301;28;20085;-61
2022/05/08 09:58:26;;;;;;;3.75;2.90;;;;;;;21.94;100.00;98695.28;5130903;28;20074;-61
2022/05/08 10:00:54;;;;;;;5.95;2.70;;;;;;;22.03;100.00;98718.47;5131182;28;20058;-61
2022/05/08 10:03:21;;;;;;;12.88;3.03;;;;;;;22.30;100.00;98719.94;5130638;28;20043;-61
2022/05/08 10:05:48;;;;;;;5.15;2.75;;;;;;;22.37;100.00;98767.16;5130833;28;20047;-61
2022/05/08 10:08:15;;;;;;;4.47;3.10;;;;;;;22.39;100.00;98761.91;5130690;28;20047;-61
2022/05/08 10:13:57;;;;;;;3.78;2.40;;;;;;;22.50;100.00;98779.03;5130894;28;20540;-61
2022/05/08 10:16:51;;;;;;;3.00;2.80;;;;;;;22.90;100.00;98750.38;5073783;28;20059;-61
2022/05/08 10:19:55;;;;;;;5.47;2.63;;;;;;;22.97;100.00;98778.09;5126861;28;20054;-61
2022/05/08 10:22:22;;;;;;;2.70;2.23;;;;;;;22.72;100.00;98779.00;5130625;28;20112;-61
2022/05/08 10:24:51;;;;;;;4.43;2.50;;;;;;;22.37;100.00;98749.63;5130483;28;20051;-61
2022/05/08 10:27:20;;;;;;;3.20;2.50;;;;;;;22.39;100.00;98761.91;5130706;28;20047;-61
2022/05/08 10:30:26;;;;;;;4.32;2.85;;;;;;;22.04;100.00;98775.84;5130310;28;20062;-61
2022/05/08 10:32:53;;;;;;;3.53;2.53;;;;;;;21.93;100.00;98732.81;5130638;28;20146;-61
2022/05/08 10:35:21;;;;;;;3.80;2.80;;;;;;;21.66;100.00;98709.03;5130107;28;20052;-62
2022/05/08 10:37:49;;;;;;;7.13;2.97;;;;;;;21.63;100.00;98676.44;5130215;28;20051;-63
2022/05/08 10:40:31;;;;;;;6.10;2.45;;;;;;;21.52;100.00;98721.41;5130110;28;20049;-62
2022/05/08 10:42:58;;;;;;;4.38;2.20;;;;;;;21.29;100.00;98739.31;5127448;28;20048;-62
2022/05/08 10:45:42;;;;;;;3.65;2.15;;;;;;;21.05;100.00;98715.78;5130435;28;20054;-62
2022/05/08 10:48:11;;;;;;;2.75;2.22;;;;;;;20.81;100.00;98688.25;5130023;28;20477;-62
2022/05/08 10:50:38;;;;;;;3.20;1.98;;;;;;;20.57;100.00;98673.88;5130049;28;20112;-62
2022/05/08 10:53:06;;;;;;;7.88;2.63;;;;;;;20.25;100.00;98687.94;5129908;28;20044;-62
2022/05/08 10:55:32;;;;;;;2.10;1.90;;;;;;;20.20;100.00;98628.81;5132049;27;20047;-62
2022/05/08 10:57:59;;;;;;;4.20;2.22;;;;;;;20.22;100.00;98620.78;5133510;28;20051;-62
2022/05/08 11:00:26;;;;;;;7.13;2.00;;;;;;;20.26;100.00;98625.47;5133372;28;20062;-62
2022/05/08 11:02:54;;;;;;;4.07;2.08;;;;;;;20.28;100.00;98607.13;5133662;28;20058;-62
2022/05/08 11:05:23;;;;;;;11.65;2.70;;;;;;;20.08;100.00;98670.53;5133654;28;20107;-62
2022/05/08 11:07:54;;;;;;;3.70;2.30;;;;;;;20.07;100.00;98636.38;5133370;28;20426;-62
2022/05/08 11:10:23;;;;;;;3.17;1.90;;;;;;;20.24;100.00;98650.97;5133209;28;20054;-62
2022/05/08 11:12:56;;;;;;;3.42;1.85;;;;;;;20.59;100.00;98659.50;5133620;28;20051;-62
2022/05/08 11:15:23;;;;;;;1.90;1.70;;;;;;;20.98;100.00;98682.56;5132967;28;20054;-62
2022/05/08 11:18:04;;;;;;;4.50;2.20;;;;;;;21.04;100.00;98701.06;5133631;28;20066;-62
2022/05/08 11:20:31;;;;;;;2.85;2.10;;;;;;;20.83;100.00;98704.53;5131114;28;20047;-62
2022/05/08 11:22:58;;;;;;;3.50;2.00;;;;;;;20.75;100.00;98667.75;5133193;28;20043;-62
2022/05/08 11:25:25;;;;;;;2.42;2.22;;;;;;;20.57;100.00;98676.66;5133314;28;20046;-62
2022/05/08 11:27:52;;;;;;;3.80;2.30;;;;;;;20.35;100.00;98665.34;5132946;28;20058;-62
2022/05/08 11:30:27;;;;;;;3.13;2.20;;;;;;;20.32;100.00;98673.81;5133224;28;20059;-60
2022/05/08 11:38:22;;;;;;;2.20;1.98;;;;;;;20.50;100.00;98718.63;5132852;28;20062;-60
2022/05/08 11:40:49;;;;;;;4.43;2.90;;;;;;;20.33;100.00;98731.84;5132948;28;20043;-60
2022/05/08 11:43:36;;;;;;;2.08;1.95;;;;;;;20.43;100.00;98689.00;5132872;28;20061;-60
2022/05/08 11:46:02;;;;;;;3.03;2.13;;;;;;;20.44;100.00;98704.47;5132900;28;20058;-61
2022/05/08 11:48:32;;;;;;;4.07;2.10;;;;;;;20.57;100.00;98626.53;5133018;28;20051;-60
2022/05/08 11:51:00;;;;;;;5.57;1.92;;;;;;;20.81;100.00;98668.75;5132669;28;20430;-60